sensor_id;sensor_type;location;lat;lon;timestamp;temperature;humidity
18169;DHT22;49877;50.398;30.324;2022-07-23T00:11:12;19.60;99.90
18169;DHT22;49877;50.398;30.324;2022-07-23T00:13:39;19.60;99.90
18169;DHT22;49877;50.398;30.324;2022-07-23T00:16:07;19.50;99.90
18169;DHT22;49877;50.398;30.324;2022-07-23T00:18:34;19.50;99.90
18169;DHT22;49877;50.398;30.324;2022-07-23T03:10:10;18.80;99.90
18169;DHT22;49877;50.398;30.324;2022-07-23T03:12:37;18.80;99.90
18169;DHT22;49877;50.398;30.324;2022-07-23T03:15:05;18.70;99.90
18169;DHT22;49877;50.398;30.324;2022-07-23T03:17:32;18.70;99.90
18169;DHT22;49877;50.398;30.324;2022-07-23T03:19:59;18.60;99.90
18169;DHT22;49877;50.398;30.324;2022-07-23T03:22:26;18.60;99.90
18169;DHT22;49877;50.398;30.324;2022-07-23T03:24:53;18.60;99.90
18169;DHT22;49877;50.398;30.324;2022-07-23T03:27:22;18.60;99.90
18169;DHT22;49877;50.398;30.324;2022-07-23T03:29:50;18.60;99.90
18169;DHT22;49877;50.398;30.324;2022-07-23T03:32:17;18.60;99.90
18169;DHT22;49877;50.398;30.324;2022-07-23T03:34:44;18.70;99.90
18169;DHT22;49877;50.398;30.324;2022-07-23T03:37:11;18.60;99.90
18169;DHT22;49877;50.398;30.324;2022-07-23T03:39:38;18.60;99.90
18169;DHT22;49877;50.398;30.324;2022-07-23T03:42:05;18.50;99.90
18169;DHT22;49877;50.398;30.324;2022-07-23T03:44:33;18.50;99.90
18169;DHT22;49877;50.398;30.324;2022-07-23T03:47:02;18.50;99.90
18169;DHT22;49877;50.398;30.324;2022-07-23T03:49:29;18.60;99.90
18169;DHT22;49877;50.398;30.324;2022-07-23T03:51:56;18.60;99.90
18169;DHT22;49877;50.398;30.324;2022-07-23T03:54:23;18.60;99.90
18169;DHT22;49877;50.398;30.324;2022-07-23T03:56:49;18.60;99.90
18169;DHT22;49877;50.398;30.324;2022-07-23T03:59:16;18.60;99.90
18169;DHT22;49877;50.398;30.324;2022-07-23T04:01:45;18.70;99.90
18169;DHT22;49877;50.398;30.324;2022-07-23T04:04:12;18.70;99.90
18169;DHT22;49877;50.398;30.324;2022-07-23T04:06:38;18.80;99.90
18169;DHT22;49877;50.398;30.324;2022-07-23T04:09:05;18.80;99.90
18169;DHT22;49877;50.398;30.324;2022-07-23T04:11:32;18.90;99.90
18169;DHT22;49877;50.398;30.324;2022-07-23T04:13:59;19.00;99.90
18169;DHT22;49877;50.398;30.324;2022-07-23T04:16:26;19.10;99.90
18169;DHT22;49877;50.398;30.324;2022-07-23T04:18:55;19.10;99.90
18169;DHT22;49877;50.398;30.324;2022-07-23T04:21:22;19.20;99.90
18169;DHT22;49877;50.398;30.324;2022-07-23T04:23:49;19.30;99.90
18169;DHT22;49877;50.398;30.324;2022-07-23T04:26:16;19.40;99.90
18169;DHT22;49877;50.398;30.324;2022-07-23T04:28:43;19.50;99.90
18169;DHT22;49877;50.398;30.324;2022-07-23T04:31:10;19.60;99.90
18169;DHT22;49877;50.398;30.324;2022-07-23T04:33:37;19.70;99.90
18169;DHT22;49877;50.398;30.324;2022-07-23T04:36:06;19.80;99.90
18169;DHT22;49877;50.398;30.324;2022-07-23T04:38:32;19.80;99.90
18169;DHT22;49877;50.398;30.324;2022-07-23T04:41:00;20.00;99.90
18169;DHT22;49877;50.398;30.324;2022-07-23T04:43:27;20.10;99.90
18169;DHT22;49877;50.398;30.324;2022-07-23T04:45:54;20.10;99.90
18169;DHT22;49877;50.398;30.324;2022-07-23T04:48:21;20.20;99.90
18169;DHT22;49877;50.398;30.324;2022-07-23T04:50:48;20.30;99.90
18169;DHT22;49877;50.398;30.324;2022-07-23T04:53:16;20.40;99.90
18169;DHT22;49877;50.398;30.324;2022-07-23T04:55:44;20.50;99.90
18169;DHT22;49877;50.398;30.324;2022-07-23T04:58:10;20.60;99.90
18169;DHT22;49877;50.398;30.324;2022-07-23T05:00:37;20.70;99.90
18169;DHT22;49877;50.398;30.324;2022-07-23T05:03:04;20.80;99.90
18169;DHT22;49877;50.398;30.324;2022-07-23T05:05:31;20.90;99.90
18169;DHT22;49877;50.398;30.324;2022-07-23T05:07:58;21.00;99.90
18169;DHT22;49877;50.398;30.324;2022-07-23T05:10:26;21.10;99.90
18169;DHT22;49877;50.398;30.324;2022-07-23T05:12:53;21.20;99.90
18169;DHT22;49877;50.398;30.324;2022-07-23T05:15:20;21.30;99.90
18169;DHT22;49877;50.398;30.324;2022-07-23T05:17:47;21.40;99.90
18169;DHT22;49877;50.398;30.324;2022-07-23T05:20:14;21.40;99.90
18169;DHT22;49877;50.398;30.324;2022-07-23T05:22:41;21.50;99.90
18169;DHT22;49877;50.398;30.324;2022-07-23T05:25:08;21.50;99.90
18169;DHT22;49877;50.398;30.324;2022-07-23T05:27:37;21.60;99.90
18169;DHT22;49877;50.398;30.324;2022-07-23T05:30:05;21.70;99.90
18169;DHT22;49877;50.398;30.324;2022-07-23T05:32:32;21.70;99.90
18169;DHT22;49877;50.398;30.324;2022-07-23T05:34:59;21.80;99.90
18169;DHT22;49877;50.398;30.324;2022-07-23T05:37:26;21.90;99.90
18169;DHT22;49877;50.398;30.324;2022-07-23T05:39:53;22.00;99.90
18169;DHT22;49877;50.398;30.324;2022-07-23T05:42:19;22.10;99.90
18169;DHT22;49877;50.398;30.324;2022-07-23T05:44:48;22.10;99.90
18169;DHT22;49877;50.398;30.324;2022-07-23T05:47:15;22.20;99.90
18169;DHT22;49877;50.398;30.324;2022-07-23T05:49:43;22.30;99.90
18169;DHT22;49877;50.398;30.324;2022-07-23T05:52:10;22.40;99.90
18169;DHT22;49877;50.398;30.324;2022-07-23T05:54:37;22.40;99.90
18169;DHT22;49877;50.398;30.324;2022-07-23T05:57:04;22.50;99.90
18169;DHT22;49877;50.398;30.324;2022-07-23T05:59:31;22.60;99.90
18169;DHT22;49877;50.398;30.324;2022-07-23T06:01:59;22.70;99.90
18169;DHT22;49877;50.398;30.324;2022-07-23T06:04:26;22.80;99.90
18169;DHT22;49877;50.398;30.324;2022-07-23T06:06:53;22.80;99.90
18169;DHT22;49877;50.398;30.324;2022-07-23T06:09:20;22.90;99.90
18169;DHT22;49877;50.398;30.324;2022-07-23T06:11:47;22.90;99.90
18169;DHT22;49877;50.398;30.324;2022-07-23T06:14:13;23.00;99.90
18169;DHT22;49877;50.398;30.324;2022-07-23T06:16:40;23.10;99.90
18169;DHT22;49877;50.398;30.324;2022-07-23T06:19:09;23.20;99.90
18169;DHT22;49877;50.398;30.324;2022-07-23T06:21:36;23.20;99.90
18169;DHT22;49877;50.398;30.324;2022-07-23T06:24:03;23.30;99.90
18169;DHT22;49877;50.398;30.324;2022-07-23T06:26:30;23.40;99.90
18169;DHT22;49877;50.398;30.324;2022-07-23T06:28:56;23.50;99.90
18169;DHT22;49877;50.398;30.324;2022-07-23T06:31:23;23.60;99.90
18169;DHT22;49877;50.398;30.324;2022-07-23T06:33:50;23.70;99.90
18169;DHT22;49877;50.398;30.324;2022-07-23T06:36:19;23.70;99.90
18169;DHT22;49877;50.398;30.324;2022-07-23T06:38:45;23.80;99.90
18169;DHT22;49877;50.398;30.324;2022-07-23T06:41:12;23.70;99.90
18169;DHT22;49877;50.398;30.324;2022-07-23T06:43:39;23.80;99.90
18169;DHT22;49877;50.398;30.324;2022-07-23T06:46:06;23.80;99.90
18169;DHT22;49877;50.398;30.324;2022-07-23T06:48:33;23.90;99.90
18169;DHT22;49877;50.398;30.324;2022-07-23T06:51:01;24.00;99.90
18169;DHT22;49877;50.398;30.324;2022-07-23T06:53:29;24.00;99.90
18169;DHT22;49877;50.398;30.324;2022-07-23T06:55:56;24.00;99.90
18169;DHT22;49877;50.398;30.324;2022-07-23T06:58:23;24.10;99.90
18169;DHT22;49877;50.398;30.324;2022-07-23T07:00:50;24.10;99.90
18169;DHT22;49877;50.398;30.324;2022-07-23T07:03:17;24.10;99.90
18169;DHT22;49877;50.398;30.324;2022-07-23T07:05:44;24.30;99.90
18169;DHT22;49877;50.398;30.324;2022-07-23T07:08:11;24.30;99.90
18169;DHT22;49877;50.398;30.324;2022-07-23T07:10:39;24.30;99.90
18169;DHT22;49877;50.398;30.324;2022-07-23T07:13:06;24.30;99.90
18169;DHT22;49877;50.398;30.324;2022-07-23T07:15:33;24.40;99.90
18169;DHT22;49877;50.398;30.324;2022-07-23T07:18:00;24.40;99.90
18169;DHT22;49877;50.398;30.324;2022-07-23T07:20:27;24.40;99.90
18169;DHT22;49877;50.398;30.324;2022-07-23T07:22:54;24.40;99.90
18169;DHT22;49877;50.398;30.324;2022-07-23T07:25:21;24.40;99.90
18169;DHT22;49877;50.398;30.324;2022-07-23T07:27:49;24.50;99.90
18169;DHT22;49877;50.398;30.324;2022-07-23T07:30:16;24.60;99.90
18169;DHT22;49877;50.398;30.324;2022-07-23T07:32:43;24.70;99.90
18169;DHT22;49877;50.398;30.324;2022-07-23T07:35:10;24.80;99.90
18169;DHT22;49877;50.398;30.324;2022-07-23T07:37:37;24.80;99.90
18169;DHT22;49877;50.398;30.324;2022-07-23T07:40:04;24.80;99.90
18169;DHT22;49877;50.398;30.324;2022-07-23T07:42:31;24.90;99.90
18169;DHT22;49877;50.398;30.324;2022-07-23T07:45:00;24.90;99.90
18169;DHT22;49877;50.398;30.324;2022-07-23T07:47:27;24.90;99.90
18169;DHT22;49877;50.398;30.324;2022-07-23T07:49:54;24.90;99.90
18169;DHT22;49877;50.398;30.324;2022-07-23T07:52:21;25.00;99.90
18169;DHT22;49877;50.398;30.324;2022-07-23T07:54:48;25.00;99.90
18169;DHT22;49877;50.398;30.324;2022-07-23T07:57:15;24.90;99.90
18169;DHT22;49877;50.398;30.324;2022-07-23T07:59:42;25.00;99.90
18169;DHT22;49877;50.398;30.324;2022-07-23T08:02:10;25.00;99.90
18169;DHT22;49877;50.398;30.324;2022-07-23T08:04:37;25.00;99.90
18169;DHT22;49877;50.398;30.324;2022-07-23T08:07:04;25.00;99.90
18169;DHT22;49877;50.398;30.324;2022-07-23T08:09:31;25.10;99.90
18169;DHT22;49877;50.398;30.324;2022-07-23T08:11:58;25.10;99.90
18169;DHT22;49877;50.398;30.324;2022-07-23T08:14:24;25.10;99.90
18169;DHT22;49877;50.398;30.324;2022-07-23T08:16:51;25.10;99.90
18169;DHT22;49877;50.398;30.324;2022-07-23T08:19:20;25.10;99.90
18169;DHT22;49877;50.398;30.324;2022-07-23T08:21:46;25.10;99.90
18169;DHT22;49877;50.398;30.324;2022-07-23T08:24:13;25.20;99.90
18169;DHT22;49877;50.398;30.324;2022-07-23T08:26:40;25.20;99.90
18169;DHT22;49877;50.398;30.324;2022-07-23T08:29:07;25.30;99.90
18169;DHT22;49877;50.398;30.324;2022-07-23T08:31:35;25.40;99.90
18169;DHT22;49877;50.398;30.324;2022-07-23T08:34:02;25.40;99.90
18169;DHT22;49877;50.398;30.324;2022-07-23T08:36:30;25.40;99.90
18169;DHT22;49877;50.398;30.324;2022-07-23T08:38:58;25.40;99.90
18169;DHT22;49877;50.398;30.324;2022-07-23T08:41:27;25.40;99.90
18169;DHT22;49877;50.398;30.324;2022-07-23T08:43:54;25.50;99.90
18169;DHT22;49877;50.398;30.324;2022-07-23T08:46:22;25.50;99.90
18169;DHT22;49877;50.398;30.324;2022-07-23T08:48:50;25.50;99.90
18169;DHT22;49877;50.398;30.324;2022-07-23T08:51:18;25.50;99.90
18169;DHT22;49877;50.398;30.324;2022-07-23T08:53:46;25.60;99.90
18169;DHT22;49877;50.398;30.324;2022-07-23T08:56:14;25.60;99.90
18169;DHT22;49877;50.398;30.324;2022-07-23T08:58:41;25.60;99.90
18169;DHT22;49877;50.398;30.324;2022-07-23T09:01:08;25.50;99.90
18169;DHT22;49877;50.398;30.324;2022-07-23T09:03:36;25.50;99.90
18169;DHT22;49877;50.398;30.324;2022-07-23T09:06:04;25.50;99.90
18169;DHT22;49877;50.398;30.324;2022-07-23T09:08:41;25.60;99.90
18169;DHT22;49877;50.398;30.324;2022-07-23T09:11:10;25.60;99.90
18169;DHT22;49877;50.398;30.324;2022-07-23T09:13:38;25.70;99.90
18169;DHT22;49877;50.398;30.324;2022-07-23T09:16:09;25.80;99.90
18169;DHT22;49877;50.398;30.324;2022-07-23T09:18:40;25.80;99.90
18169;DHT22;49877;50.398;30.324;2022-07-23T09:21:18;25.80;99.90
18169;DHT22;49877;50.398;30.324;2022-07-23T09:23:47;25.90;99.90
18169;DHT22;49877;50.398;30.324;2022-07-23T09:26:22;25.90;99.90
18169;DHT22;49877;50.398;30.324;2022-07-23T09:28:51;26.00;99.90
18169;DHT22;49877;50.398;30.324;2022-07-23T09:31:19;26.00;99.90
18169;DHT22;49877;50.398;30.324;2022-07-23T09:33:46;26.00;99.90
18169;DHT22;49877;50.398;30.324;2022-07-23T09:36:13;26.00;99.90
18169;DHT22;49877;50.398;30.324;2022-07-23T09:38:48;26.10;99.90
18169;DHT22;49877;50.398;30.324;2022-07-23T09:41:15;26.20;99.90
18169;DHT22;49877;50.398;30.324;2022-07-23T09:43:44;26.20;99.90
18169;DHT22;49877;50.398;30.324;2022-07-23T09:46:18;26.20;99.90
18169;DHT22;49877;50.398;30.324;2022-07-23T09:48:46;26.20;99.90
18169;DHT22;49877;50.398;30.324;2022-07-23T09:51:13;26.20;99.90
18169;DHT22;49877;50.398;30.324;2022-07-23T09:53:41;26.10;99.90
18169;DHT22;49877;50.398;30.324;2022-07-23T09:56:08;26.00;99.90
18169;DHT22;49877;50.398;30.324;2022-07-23T09:58:39;26.10;99.90
18169;DHT22;49877;50.398;30.324;2022-07-23T10:01:13;26.20;99.90
18169;DHT22;49877;50.398;30.324;2022-07-23T10:03:41;26.20;99.90
18169;DHT22;49877;50.398;30.324;2022-07-23T10:06:08;26.20;99.90
18169;DHT22;49877;50.398;30.324;2022-07-23T10:08:36;26.20;99.90
18169;DHT22;49877;50.398;30.324;2022-07-23T10:11:05;26.30;99.90
18169;DHT22;49877;50.398;30.324;2022-07-23T10:13:33;26.30;99.90
18169;DHT22;49877;50.398;30.324;2022-07-23T10:16:21;26.30;99.90
18169;DHT22;49877;50.398;30.324;2022-07-23T10:18:49;26.40;99.90
18169;DHT22;49877;50.398;30.324;2022-07-23T10:21:20;26.40;99.90
18169;DHT22;49877;50.398;30.324;2022-07-23T10:24:01;26.40;99.90
18169;DHT22;49877;50.398;30.324;2022-07-23T10:26:37;26.40;99.90
18169;DHT22;49877;50.398;30.324;2022-07-23T10:29:17;26.50;99.90
18169;DHT22;49877;50.398;30.324;2022-07-23T10:31:54;26.50;99.90
18169;DHT22;49877;50.398;30.324;2022-07-23T10:34:30;26.60;99.90
18169;DHT22;49877;50.398;30.324;2022-07-23T10:37:07;26.60;99.90
18169;DHT22;49877;50.398;30.324;2022-07-23T10:39:34;26.70;99.90
18169;DHT22;49877;50.398;30.324;2022-07-23T10:42:10;26.70;99.90
18169;DHT22;49877;50.398;30.324;2022-07-23T10:44:42;26.80;99.90
18169;DHT22;49877;50.398;30.324;2022-07-23T10:47:13;26.80;99.90
18169;DHT22;49877;50.398;30.324;2022-07-23T10:50:24;26.80;99.90
18169;DHT22;49877;50.398;30.324;2022-07-23T10:53:13;26.80;99.90
18169;DHT22;49877;50.398;30.324;2022-07-23T10:55:49;26.90;99.90
18169;DHT22;49877;50.398;30.324;2022-07-23T10:58:22;26.90;99.90
18169;DHT22;49877;50.398;30.324;2022-07-23T11:00:50;26.90;99.90
18169;DHT22;49877;50.398;30.324;2022-07-23T11:03:35;26.90;99.90
18169;DHT22;49877;50.398;30.324;2022-07-23T11:06:06;27.00;99.90
18169;DHT22;49877;50.398;30.324;2022-07-23T11:08:33;27.00;99.90
18169;DHT22;49877;50.398;30.324;2022-07-23T11:11:11;27.00;99.90
18169;DHT22;49877;50.398;30.324;2022-07-23T11:13:44;27.10;99.90
18169;DHT22;49877;50.398;30.324;2022-07-23T11:16:16;27.10;99.90
18169;DHT22;49877;50.398;30.324;2022-07-23T11:19:06;27.20;99.90
18169;DHT22;49877;50.398;30.324;2022-07-23T11:21:58;27.30;99.90
18169;DHT22;49877;50.398;30.324;2022-07-23T11:24:25;27.30;99.90
18169;DHT22;49877;50.398;30.324;2022-07-23T11:27:02;27.30;99.90
18169;DHT22;49877;50.398;30.324;2022-07-23T11:29:46;27.30;99.90
18169;DHT22;49877;50.398;30.324;2022-07-23T11:32:47;27.40;99.90
18169;DHT22;49877;50.398;30.324;2022-07-23T11:35:25;27.50;99.90
18169;DHT22;49877;50.398;30.324;2022-07-23T11:38:02;27.60;99.90
18169;DHT22;49877;50.398;30.324;2022-07-23T11:40:29;27.60;99.90
18169;DHT22;49877;50.398;30.324;2022-07-23T11:42:59;27.70;99.90
18169;DHT22;49877;50.398;30.324;2022-07-23T11:45:31;27.70;99.70
18169;DHT22;49877;50.398;30.324;2022-07-23T11:47:58;27.70;99.70
18169;DHT22;49877;50.398;30.324;2022-07-23T11:50:25;27.70;99.90
18169;DHT22;49877;50.398;30.324;2022-07-23T11:52:54;27.60;99.90
18169;DHT22;49877;50.398;30.324;2022-07-23T11:55:21;27.60;99.90
18169;DHT22;49877;50.398;30.324;2022-07-23T11:57:51;27.60;99.90
18169;DHT22;49877;50.398;30.324;2022-07-23T12:00:20;27.60;99.90
18169;DHT22;49877;50.398;30.324;2022-07-23T12:02:49;27.60;99.90
18169;DHT22;49877;50.398;30.324;2022-07-23T12:05:18;27.70;99.90
18169;DHT22;49877;50.398;30.324;2022-07-23T12:07:46;27.70;99.70
18169;DHT22;49877;50.398;30.324;2022-07-23T12:10:19;27.80;99.60
18169;DHT22;49877;50.398;30.324;2022-07-23T12:12:48;27.80;99.30
18169;DHT22;49877;50.398;30.324;2022-07-23T12:15:18;27.90;99.60
18169;DHT22;49877;50.398;30.324;2022-07-23T12:17:46;28.00;99.90
18169;DHT22;49877;50.398;30.324;2022-07-23T12:20:15;28.10;99.60
18169;DHT22;49877;50.398;30.324;2022-07-23T12:22:44;28.20;99.60
18169;DHT22;49877;50.398;30.324;2022-07-23T12:25:13;28.20;99.90
18169;DHT22;49877;50.398;30.324;2022-07-23T12:27:42;28.20;99.90
18169;DHT22;49877;50.398;30.324;2022-07-23T12:30:24;28.30;99.90
18169;DHT22;49877;50.398;30.324;2022-07-23T12:32:53;28.30;99.90
18169;DHT22;49877;50.398;30.324;2022-07-23T12:35:21;28.30;99.10
18169;DHT22;49877;50.398;30.324;2022-07-23T12:37:50;28.30;99.00
18169;DHT22;49877;50.398;30.324;2022-07-23T12:40:29;28.30;99.10
18169;DHT22;49877;50.398;30.324;2022-07-23T12:42:59;28.30;98.50
18169;DHT22;49877;50.398;30.324;2022-07-23T12:45:28;28.20;98.00
18169;DHT22;49877;50.398;30.324;2022-07-23T12:48:00;28.20;98.00
18169;DHT22;49877;50.398;30.324;2022-07-23T12:50:37;28.20;98.00
18169;DHT22;49877;50.398;30.324;2022-07-23T12:53:06;28.10;98.50
18169;DHT22;49877;50.398;30.324;2022-07-23T12:55:34;28.10;97.40
18169;DHT22;49877;50.398;30.324;2022-07-23T12:58:20;28.10;97.70
18169;DHT22;49877;50.398;30.324;2022-07-23T13:01:05;28.10;97.80
18169;DHT22;49877;50.398;30.324;2022-07-23T13:03:34;28.10;97.20
18169;DHT22;49877;50.398;30.324;2022-07-23T13:06:03;28.10;97.90
18169;DHT22;49877;50.398;30.324;2022-07-23T13:08:32;28.20;97.60
18169;DHT22;49877;50.398;30.324;2022-07-23T13:10:59;28.20;97.60
18169;DHT22;49877;50.398;30.324;2022-07-23T13:13:30;28.30;97.10
18169;DHT22;49877;50.398;30.324;2022-07-23T13:15:58;28.30;97.10
18169;DHT22;49877;50.398;30.324;2022-07-23T13:18:26;28.30;96.80
18169;DHT22;49877;50.398;30.324;2022-07-23T13:20:54;28.30;96.30
18169;DHT22;49877;50.398;30.324;2022-07-23T13:23:21;28.30;96.20
18169;DHT22;49877;50.398;30.324;2022-07-23T13:25:48;28.40;96.20
18169;DHT22;49877;50.398;30.324;2022-07-23T13:28:16;28.40;94.80
18169;DHT22;49877;50.398;30.324;2022-07-23T13:30:45;28.50;95.30
18169;DHT22;49877;50.398;30.324;2022-07-23T13:33:15;28.50;95.20
18169;DHT22;49877;50.398;30.324;2022-07-23T13:35:43;28.60;95.50
18169;DHT22;49877;50.398;30.324;2022-07-23T13:38:10;28.60;95.70
18169;DHT22;49877;50.398;30.324;2022-07-23T13:40:38;28.60;95.80
18169;DHT22;49877;50.398;30.324;2022-07-23T13:43:06;28.70;95.30
18169;DHT22;49877;50.398;30.324;2022-07-23T13:45:33;28.70;94.70
18169;DHT22;49877;50.398;30.324;2022-07-23T13:48:02;28.70;94.10
18169;DHT22;49877;50.398;30.324;2022-07-23T13:50:29;28.60;93.30
18169;DHT22;49877;50.398;30.324;2022-07-23T13:52:57;28.60;93.80
18169;DHT22;49877;50.398;30.324;2022-07-23T13:55:24;28.70;93.50
18169;DHT22;49877;50.398;30.324;2022-07-23T13:57:51;28.70;93.60
18169;DHT22;49877;50.398;30.324;2022-07-23T14:00:18;28.70;93.50
18169;DHT22;49877;50.398;30.324;2022-07-23T14:02:45;28.70;93.20
18169;DHT22;49877;50.398;30.324;2022-07-23T14:05:14;28.80;93.60
18169;DHT22;49877;50.398;30.324;2022-07-23T14:07:41;28.90;93.60
18169;DHT22;49877;50.398;30.324;2022-07-23T14:10:09;28.90;93.50
18169;DHT22;49877;50.398;30.324;2022-07-23T14:12:37;28.90;93.90
18169;DHT22;49877;50.398;30.324;2022-07-23T14:15:05;28.90;93.50
18169;DHT22;49877;50.398;30.324;2022-07-23T14:17:34;28.90;93.70
18169;DHT22;49877;50.398;30.324;2022-07-23T14:20:01;29.00;93.60
18169;DHT22;49877;50.398;30.324;2022-07-23T14:22:29;29.00;93.60
18169;DHT22;49877;50.398;30.324;2022-07-23T14:24:56;29.00;93.30
18169;DHT22;49877;50.398;30.324;2022-07-23T14:27:24;28.90;93.10
18169;DHT22;49877;50.398;30.324;2022-07-23T14:29:51;28.80;93.30
18169;DHT22;49877;50.398;30.324;2022-07-23T14:32:18;28.80;93.50
18169;DHT22;49877;50.398;30.324;2022-07-23T14:34:45;28.70;93.50
18169;DHT22;49877;50.398;30.324;2022-07-23T14:37:12;28.70;93.40
18169;DHT22;49877;50.398;30.324;2022-07-23T14:39:41;28.70;93.70
18169;DHT22;49877;50.398;30.324;2022-07-23T14:42:08;28.70;93.60
18169;DHT22;49877;50.398;30.324;2022-07-23T14:44:36;28.70;93.50
18169;DHT22;49877;50.398;30.324;2022-07-23T14:47:04;28.70;93.70
18169;DHT22;49877;50.398;30.324;2022-07-23T14:49:32;28.70;93.80
18169;DHT22;49877;50.398;30.324;2022-07-23T14:51:59;28.70;93.90
18169;DHT22;49877;50.398;30.324;2022-07-23T14:54:28;28.70;94.00
18169;DHT22;49877;50.398;30.324;2022-07-23T14:56:57;28.70;93.70
18169;DHT22;49877;50.398;30.324;2022-07-23T14:59:24;28.70;93.70
18169;DHT22;49877;50.398;30.324;2022-07-23T15:01:52;28.60;93.50
18169;DHT22;49877;50.398;30.324;2022-07-23T15:04:19;28.60;93.50
18169;DHT22;49877;50.398;30.324;2022-07-23T15:06:47;28.60;93.50
18169;DHT22;49877;50.398;30.324;2022-07-23T15:09:13;28.60;93.60
18169;DHT22;49877;50.398;30.324;2022-07-23T15:11:40;28.60;93.30
18169;DHT22;49877;50.398;30.324;2022-07-23T15:14:09;28.60;93.20
18169;DHT22;49877;50.398;30.324;2022-07-23T15:16:36;28.50;93.20
18169;DHT22;49877;50.398;30.324;2022-07-23T15:19:03;28.50;93.20
18169;DHT22;49877;50.398;30.324;2022-07-23T15:21:30;28.50;93.30
18169;DHT22;49877;50.398;30.324;2022-07-23T15:23:58;28.50;93.10
18169;DHT22;49877;50.398;30.324;2022-07-23T15:26:25;28.40;93.10
18169;DHT22;49877;50.398;30.324;2022-07-23T15:28:52;28.30;93.40
18169;DHT22;49877;50.398;30.324;2022-07-23T15:31:20;28.30;93.20
18169;DHT22;49877;50.398;30.324;2022-07-23T15:33:48;28.40;93.00
18169;DHT22;49877;50.398;30.324;2022-07-23T15:36:17;28.30;93.00
18169;DHT22;49877;50.398;30.324;2022-07-23T15:38:44;28.30;92.80
18169;DHT22;49877;50.398;30.324;2022-07-23T15:41:11;28.30;93.00
18169;DHT22;49877;50.398;30.324;2022-07-23T15:43:38;28.30;93.10
18169;DHT22;49877;50.398;30.324;2022-07-23T15:46:05;28.30;93.30
18169;DHT22;49877;50.398;30.324;2022-07-23T15:48:35;28.30;93.30
18169;DHT22;49877;50.398;30.324;2022-07-23T15:51:03;28.30;93.30
18169;DHT22;49877;50.398;30.324;2022-07-23T15:53:31;28.30;93.20
18169;DHT22;49877;50.398;30.324;2022-07-23T15:55:58;28.30;93.00
18169;DHT22;49877;50.398;30.324;2022-07-23T15:58:26;28.30;93.50
18169;DHT22;49877;50.398;30.324;2022-07-23T16:00:53;28.30;93.20
18169;DHT22;49877;50.398;30.324;2022-07-23T16:03:20;28.30;92.90
18169;DHT22;49877;50.398;30.324;2022-07-23T16:05:48;28.30;92.70
18169;DHT22;49877;50.398;30.324;2022-07-23T16:08:15;28.30;92.60
18169;DHT22;49877;50.398;30.324;2022-07-23T16:10:42;28.20;92.40
18169;DHT22;49877;50.398;30.324;2022-07-23T16:13:09;28.20;92.60
18169;DHT22;49877;50.398;30.324;2022-07-23T16:15:37;28.20;92.60
18169;DHT22;49877;50.398;30.324;2022-07-23T16:18:06;28.20;92.80
18169;DHT22;49877;50.398;30.324;2022-07-23T16:20:34;28.20;92.80
18169;DHT22;49877;50.398;30.324;2022-07-23T16:23:02;28.20;92.60
18169;DHT22;49877;50.398;30.324;2022-07-23T16:25:29;28.10;93.00
18169;DHT22;49877;50.398;30.324;2022-07-23T16:27:56;28.10;92.80
18169;DHT22;49877;50.398;30.324;2022-07-23T16:30:23;28.20;92.80
18169;DHT22;49877;50.398;30.324;2022-07-23T16:32:50;28.10;93.00
18169;DHT22;49877;50.398;30.324;2022-07-23T16:35:17;28.10;92.90
18169;DHT22;49877;50.398;30.324;2022-07-23T16:37:43;28.10;93.00
18169;DHT22;49877;50.398;30.324;2022-07-23T16:40:12;28.20;93.00
18169;DHT22;49877;50.398;30.324;2022-07-23T16:42:39;28.20;92.50
18169;DHT22;49877;50.398;30.324;2022-07-23T16:45:07;28.20;92.70
18169;DHT22;49877;50.398;30.324;2022-07-23T16:47:35;28.20;93.20
18169;DHT22;49877;50.398;30.324;2022-07-23T16:50:03;28.10;94.70
18169;DHT22;49877;50.398;30.324;2022-07-23T16:52:30;28.00;94.90
18169;DHT22;49877;50.398;30.324;2022-07-23T16:54:57;27.90;95.80
18169;DHT22;49877;50.398;30.324;2022-07-23T16:57:25;27.80;96.50
18169;DHT22;49877;50.398;30.324;2022-07-23T16:59:52;27.70;96.60
18169;DHT22;49877;50.398;30.324;2022-07-23T17:02:19;27.60;96.70
18169;DHT22;49877;50.398;30.324;2022-07-23T17:04:46;27.50;97.30
18169;DHT22;49877;50.398;30.324;2022-07-23T17:07:13;27.40;97.40
18169;DHT22;49877;50.398;30.324;2022-07-23T17:09:40;27.40;97.40
18169;DHT22;49877;50.398;30.324;2022-07-23T17:12:08;27.40;97.70
18169;DHT22;49877;50.398;30.324;2022-07-23T17:14:36;27.30;97.40
18169;DHT22;49877;50.398;30.324;2022-07-23T17:17:03;27.30;97.50
18169;DHT22;49877;50.398;30.324;2022-07-23T17:19:30;27.20;97.60
18169;DHT22;49877;50.398;30.324;2022-07-23T17:21:57;27.20;97.70
18169;DHT22;49877;50.398;30.324;2022-07-23T17:24:24;27.20;97.80
18169;DHT22;49877;50.398;30.324;2022-07-23T17:26:51;27.10;98.00
18169;DHT22;49877;50.398;30.324;2022-07-23T17:29:18;27.10;98.20
18169;DHT22;49877;50.398;30.324;2022-07-23T17:31:46;27.00;98.10
18169;DHT22;49877;50.398;30.324;2022-07-23T17:34:13;27.00;98.00
18169;DHT22;49877;50.398;30.324;2022-07-23T17:36:40;26.90;98.10
18169;DHT22;49877;50.398;30.324;2022-07-23T17:39:07;26.80;98.10
18169;DHT22;49877;50.398;30.324;2022-07-23T17:41:35;26.80;98.20
18169;DHT22;49877;50.398;30.324;2022-07-23T17:44:02;26.70;98.40
18169;DHT22;49877;50.398;30.324;2022-07-23T17:46:29;26.60;98.50
18169;DHT22;49877;50.398;30.324;2022-07-23T17:48:58;26.50;98.60
18169;DHT22;49877;50.398;30.324;2022-07-23T17:51:25;26.50;98.80
18169;DHT22;49877;50.398;30.324;2022-07-23T17:53:52;26.40;98.90
18169;DHT22;49877;50.398;30.324;2022-07-23T17:56:19;26.30;99.20
18169;DHT22;49877;50.398;30.324;2022-07-23T17:58:46;26.30;99.80
18169;DHT22;49877;50.398;30.324;2022-07-23T18:01:13;26.10;99.90
18169;DHT22;49877;50.398;30.324;2022-07-23T18:03:40;26.00;99.90
18169;DHT22;49877;50.398;30.324;2022-07-23T18:06:10;25.90;99.90
18169;DHT22;49877;50.398;30.324;2022-07-23T18:08:37;25.80;99.90
18169;DHT22;49877;50.398;30.324;2022-07-23T18:11:04;25.70;99.90
18169;DHT22;49877;50.398;30.324;2022-07-23T18:13:31;25.60;99.90
18169;DHT22;49877;50.398;30.324;2022-07-23T18:15:59;25.50;99.90
18169;DHT22;49877;50.398;30.324;2022-07-23T18:18:26;25.40;99.90
18169;DHT22;49877;50.398;30.324;2022-07-23T18:20:54;25.40;99.90
18169;DHT22;49877;50.398;30.324;2022-07-23T18:23:23;25.30;99.90